KMOP

Mount Pleasant Municipal Airport

Mount Pleasant, Michigan, USA
METAR KMOP 172215Z AUTO 00000KT 10SM -DZ CLR 25/20 A2994 RMK AO2 T02470202
Observed Flight Rules
Aug-17 @ 22:15 UTC (22 minutes ago) Visual Flight Rules
Visibility Clouds Conditions
10 miles
  • Clear skies
  • Light Drizzle
Temperatures Readings
Current 25°C / 77°F
Dewpoint 20°C / 68°F
Humidity 74%
Altimeter 29.94" Hg
Pressure 1014 hPa
Elevation 230
METAR KMOP 172215Z AUTO 00000KT 10SM -DZ CLR 25/20 A2994 RMK AO2 T02470202
Observed Flight Rules
Aug-17 @ 22:15 UTC
(22 minutes ago)
VFR
Clouds
  • Clear skies
Conditions
  • Light Drizzle
Temperature Dewpoint
25°C / 77°F 20°C / 68°F
Humidity Altimeter Pressure
74% 29.94" Hg 1014 hPa